sensor_id;sensor_type;location;lat;lon;timestamp;pressure;altitude;pressure_sealevel;temperature;humidity
75895;BME280;64573;50.328;15.014;2023-05-16T00:00:11;98326.84;;;8.62;98.55
75895;BME280;64573;50.328;15.014;2023-05-16T00:18:07;98345.50;;;8.32;99.29
75895;BME280;64573;50.328;15.014;2023-05-16T00:20:34;98351.00;;;8.39;99.24
75895;BME280;64573;50.328;15.014;2023-05-16T00:22:59;98344.28;;;8.43;99.28
75895;BME280;64573;50.328;15.014;2023-05-16T00:25:25;98346.84;;;8.36;99.37
75895;BME280;64573;50.328;15.014;2023-05-16T00:27:50;98344.69;;;8.32;99.27
75895;BME280;64573;50.328;15.014;2023-05-16T00:32:45;98348.69;;;8.36;99.16
75895;BME280;64573;50.328;15.014;2023-05-16T00:45:21;98338.59;;;8.23;98.76
75895;BME280;64573;50.328;15.014;2023-05-16T00:47:46;98334.91;;;8.24;99.04
75895;BME280;64573;50.328;15.014;2023-05-16T00:50:12;98349.19;;;8.31;99.58
75895;BME280;64573;50.328;15.014;2023-05-16T00:52:37;98344.53;;;8.33;98.94
75895;BME280;64573;50.328;15.014;2023-05-16T00:55:03;98344.22;;;8.28;98.77
75895;BME280;64573;50.328;15.014;2023-05-16T00:57:29;98354.81;;;8.21;99.50
75895;BME280;64573;50.328;15.014;2023-05-16T00:59:54;98355.63;;;8.22;99.86
75895;BME280;64573;50.328;15.014;2023-05-16T01:02:20;98364.84;;;8.19;99.76
75895;BME280;64573;50.328;15.014;2023-05-16T01:04:46;98365.09;;;8.10;99.60
75895;BME280;64573;50.328;15.014;2023-05-16T01:07:12;98366.47;;;8.06;99.43
75895;BME280;64573;50.328;15.014;2023-05-16T01:09:38;98354.66;;;8.00;100.00
75895;BME280;64573;50.328;15.014;2023-05-16T01:32:36;98382.50;;;7.83;100.00
75895;BME280;64573;50.328;15.014;2023-05-16T01:35:02;98378.94;;;7.67;99.72
75895;BME280;64573;50.328;15.014;2023-05-16T01:37:34;98380.75;;;7.67;100.00
75895;BME280;64573;50.328;15.014;2023-05-16T01:40:08;98378.41;;;7.72;100.00
75895;BME280;64573;50.328;15.014;2023-05-16T01:45:19;98387.06;;;7.97;100.00
75895;BME280;64573;50.328;15.014;2023-05-16T01:50:24;98381.00;;;8.26;100.00
75895;BME280;64573;50.328;15.014;2023-05-16T02:00:23;98375.34;;;8.21;100.00
75895;BME280;64573;50.328;15.014;2023-05-16T02:02:49;98371.97;;;8.27;100.00
75895;BME280;64573;50.328;15.014;2023-05-16T02:07:49;98374.34;;;8.22;100.00
75895;BME280;64573;50.328;15.014;2023-05-16T02:18:00;98370.69;;;7.77;100.00
75895;BME280;64573;50.328;15.014;2023-05-16T02:25:36;98376.69;;;7.79;99.86
75895;BME280;64573;50.328;15.014;2023-05-16T02:38:22;98385.75;;;7.47;99.84
75895;BME280;64573;50.328;15.014;2023-05-16T02:40:47;98394.75;;;7.46;99.50
75895;BME280;64573;50.328;15.014;2023-05-16T02:50:58;98379.00;;;7.28;99.61
75895;BME280;64573;50.328;15.014;2023-05-16T02:53:23;98378.88;;;7.22;99.96
75895;BME280;64573;50.328;15.014;2023-05-16T02:55:49;98382.56;;;7.21;99.93
75895;BME280;64573;50.328;15.014;2023-05-16T03:03:18;98390.13;;;7.40;100.00
75895;BME280;64573;50.328;15.014;2023-05-16T03:08:19;98387.66;;;7.30;100.00
75895;BME280;64573;50.328;15.014;2023-05-16T03:10:44;98397.69;;;7.28;100.00
75895;BME280;64573;50.328;15.014;2023-05-16T03:15:41;98399.88;;;7.25;100.00
75895;BME280;64573;50.328;15.014;2023-05-16T03:18:07;98402.88;;;7.22;99.39
75895;BME280;64573;50.328;15.014;2023-05-16T03:20:32;98398.03;;;7.25;100.00
75895;BME280;64573;50.328;15.014;2023-05-16T03:22:58;98404.16;;;7.34;100.00
75895;BME280;64573;50.328;15.014;2023-05-16T03:25:23;98406.41;;;7.45;100.00
75895;BME280;64573;50.328;15.014;2023-05-16T03:27:48;98409.09;;;7.45;100.00
75895;BME280;64573;50.328;15.014;2023-05-16T03:30:14;98409.44;;;7.42;99.46
75895;BME280;64573;50.328;15.014;2023-05-16T03:32:40;98411.47;;;7.40;99.38
75895;BME280;64573;50.328;15.014;2023-05-16T03:37:41;98415.78;;;7.41;99.84
75895;BME280;64573;50.328;15.014;2023-05-16T03:40:07;98414.41;;;7.45;99.57
75895;BME280;64573;50.328;15.014;2023-05-16T03:42:33;98414.09;;;7.48;99.25
75895;BME280;64573;50.328;15.014;2023-05-16T03:44:58;98429.56;;;7.53;99.80
75895;BME280;64573;50.328;15.014;2023-05-16T03:47:23;98438.22;;;7.55;100.00
75895;BME280;64573;50.328;15.014;2023-05-16T03:52:24;98445.13;;;7.72;99.80
75895;BME280;64573;50.328;15.014;2023-05-16T03:54:49;98445.06;;;7.80;99.79
75895;BME280;64573;50.328;15.014;2023-05-16T03:57:15;98448.19;;;7.92;99.60
75895;BME280;64573;50.328;15.014;2023-05-16T03:59:40;98456.13;;;8.00;99.44
75895;BME280;64573;50.328;15.014;2023-05-16T04:02:06;98454.94;;;8.02;98.89
75895;BME280;64573;50.328;15.014;2023-05-16T04:04:31;98457.50;;;8.19;98.49
75895;BME280;64573;50.328;15.014;2023-05-16T04:06:56;98456.72;;;8.33;98.90
75895;BME280;64573;50.328;15.014;2023-05-16T04:09:22;98467.00;;;8.44;98.88
75895;BME280;64573;50.328;15.014;2023-05-16T04:11:47;98478.38;;;8.61;98.42
75895;BME280;64573;50.328;15.014;2023-05-16T04:14:12;98470.88;;;8.79;98.17
75895;BME280;64573;50.328;15.014;2023-05-16T04:16:38;98469.03;;;8.80;97.43
75895;BME280;64573;50.328;15.014;2023-05-16T04:19:03;98465.81;;;8.84;97.92
75895;BME280;64573;50.328;15.014;2023-05-16T04:21:29;98474.88;;;8.98;97.43
75895;BME280;64573;50.328;15.014;2023-05-16T04:23:55;98479.41;;;9.13;97.67
75895;BME280;64573;50.328;15.014;2023-05-16T04:26:21;98468.94;;;9.47;97.58
75895;BME280;64573;50.328;15.014;2023-05-16T04:28:47;98471.06;;;9.88;96.67
75895;BME280;64573;50.328;15.014;2023-05-16T04:31:12;98478.41;;;10.37;95.67
75895;BME280;64573;50.328;15.014;2023-05-16T04:33:38;98477.03;;;10.69;94.54
75895;BME280;64573;50.328;15.014;2023-05-16T04:36:04;98480.19;;;10.79;93.52
75895;BME280;64573;50.328;15.014;2023-05-16T04:38:30;98475.56;;;11.29;92.85
75895;BME280;64573;50.328;15.014;2023-05-16T04:40:56;98487.72;;;11.59;91.73
75895;BME280;64573;50.328;15.014;2023-05-16T04:43:21;98484.25;;;11.72;91.07
75895;BME280;64573;50.328;15.014;2023-05-16T04:45:47;98490.34;;;11.87;89.85
75895;BME280;64573;50.328;15.014;2023-05-16T04:48:13;98489.47;;;11.80;89.31
75895;BME280;64573;50.328;15.014;2023-05-16T04:50:39;98496.16;;;11.98;88.51
75895;BME280;64573;50.328;15.014;2023-05-16T04:53:05;98495.50;;;11.82;87.52
75895;BME280;64573;50.328;15.014;2023-05-16T04:55:30;98500.91;;;11.54;85.58
75895;BME280;64573;50.328;15.014;2023-05-16T04:57:55;98503.06;;;11.72;86.74
75895;BME280;64573;50.328;15.014;2023-05-16T05:00:21;98498.50;;;11.66;86.68
75895;BME280;64573;50.328;15.014;2023-05-16T05:02:46;98496.34;;;11.48;86.69
75895;BME280;64573;50.328;15.014;2023-05-16T05:05:12;98499.66;;;11.50;87.12
75895;BME280;64573;50.328;15.014;2023-05-16T05:07:37;98494.63;;;11.75;86.22
75895;BME280;64573;50.328;15.014;2023-05-16T05:10:03;98504.47;;;12.16;85.98
75895;BME280;64573;50.328;15.014;2023-05-16T05:12:28;98508.50;;;12.47;85.95
75895;BME280;64573;50.328;15.014;2023-05-16T05:14:53;98507.25;;;12.56;83.03
75895;BME280;64573;50.328;15.014;2023-05-16T05:17:19;98517.00;;;12.90;82.64
75895;BME280;64573;50.328;15.014;2023-05-16T05:19:46;98517.63;;;13.18;81.82
75895;BME280;64573;50.328;15.014;2023-05-16T05:24:41;98516.59;;;12.86;80.88
75895;BME280;64573;50.328;15.014;2023-05-16T05:27:06;98515.31;;;13.15;80.21
75895;BME280;64573;50.328;15.014;2023-05-16T05:29:32;98517.81;;;12.70;79.76
75895;BME280;64573;50.328;15.014;2023-05-16T05:31:58;98526.53;;;12.92;78.97
75895;BME280;64573;50.328;15.014;2023-05-16T05:34:23;98521.13;;;13.19;78.74
75895;BME280;64573;50.328;15.014;2023-05-16T05:36:48;98514.06;;;13.38;77.74
75895;BME280;64573;50.328;15.014;2023-05-16T05:39:14;98511.09;;;13.66;78.13
75895;BME280;64573;50.328;15.014;2023-05-16T05:41:39;98507.38;;;14.12;76.48
75895;BME280;64573;50.328;15.014;2023-05-16T05:44:05;98499.44;;;13.85;75.76
75895;BME280;64573;50.328;15.014;2023-05-16T05:46:31;98492.94;;;13.99;76.10
75895;BME280;64573;50.328;15.014;2023-05-16T05:48:57;98493.78;;;13.93;76.15
75895;BME280;64573;50.328;15.014;2023-05-16T05:51:23;98496.22;;;13.57;76.21
75895;BME280;64573;50.328;15.014;2023-05-16T05:53:48;98502.75;;;13.80;77.22
75895;BME280;64573;50.328;15.014;2023-05-16T05:56:14;98506.00;;;13.96;76.48
75895;BME280;64573;50.328;15.014;2023-05-16T05:58:40;98510.09;;;14.05;75.36
75895;BME280;64573;50.328;15.014;2023-05-16T06:01:09;98505.28;;;14.20;75.33
75895;BME280;64573;50.328;15.014;2023-05-16T06:03:35;98510.75;;;14.70;73.54
75895;BME280;64573;50.328;15.014;2023-05-16T06:06:00;98496.81;;;14.80;73.13
75895;BME280;64573;50.328;15.014;2023-05-16T06:08:25;98500.25;;;14.62;73.79
75895;BME280;64573;50.328;15.014;2023-05-16T06:10:51;98502.63;;;14.45;75.23
75895;BME280;64573;50.328;15.014;2023-05-16T06:13:16;98497.44;;;14.75;75.25
75895;BME280;64573;50.328;15.014;2023-05-16T06:15:42;98501.91;;;14.25;76.17
75895;BME280;64573;50.328;15.014;2023-05-16T06:18:07;98505.03;;;14.60;75.65
75895;BME280;64573;50.328;15.014;2023-05-16T06:20:32;98509.00;;;14.57;74.15
75895;BME280;64573;50.328;15.014;2023-05-16T06:22:58;98513.75;;;14.24;75.19
75895;BME280;64573;50.328;15.014;2023-05-16T06:25:23;98509.41;;;14.23;75.17
75895;BME280;64573;50.328;15.014;2023-05-16T06:27:49;98504.50;;;14.06;74.61
75895;BME280;64573;50.328;15.014;2023-05-16T06:30:14;98514.81;;;14.16;73.87
75895;BME280;64573;50.328;15.014;2023-05-16T06:32:40;98503.81;;;14.18;76.55
75895;BME280;64573;50.328;15.014;2023-05-16T06:35:06;98502.81;;;14.12;75.30
75895;BME280;64573;50.328;15.014;2023-05-16T06:37:32;98508.38;;;14.17;75.67
75895;BME280;64573;50.328;15.014;2023-05-16T06:39:57;98508.22;;;14.50;73.53
75895;BME280;64573;50.328;15.014;2023-05-16T06:42:23;98500.56;;;14.47;73.19
75895;BME280;64573;50.328;15.014;2023-05-16T06:44:48;98504.56;;;13.93;74.24
75895;BME280;64573;50.328;15.014;2023-05-16T06:47:14;98507.28;;;14.31;75.01
75895;BME280;64573;50.328;15.014;2023-05-16T06:49:40;98504.41;;;13.82;75.14
75895;BME280;64573;50.328;15.014;2023-05-16T06:52:05;98501.34;;;14.16;74.78
75895;BME280;64573;50.328;15.014;2023-05-16T06:54:30;98498.84;;;14.21;75.58
75895;BME280;64573;50.328;15.014;2023-05-16T06:56:56;98516.16;;;14.00;76.14
75895;BME280;64573;50.328;15.014;2023-05-16T06:59:21;98513.97;;;14.22;75.07
75895;BME280;64573;50.328;15.014;2023-05-16T07:01:47;98518.38;;;14.48;73.70
75895;BME280;64573;50.328;15.014;2023-05-16T07:04:13;98524.63;;;15.05;71.86
75895;BME280;64573;50.328;15.014;2023-05-16T07:06:39;98520.06;;;14.49;73.59
75895;BME280;64573;50.328;15.014;2023-05-16T07:09:04;98524.66;;;14.74;72.64
75895;BME280;64573;50.328;15.014;2023-05-16T07:11:30;98523.06;;;15.16;71.60
75895;BME280;64573;50.328;15.014;2023-05-16T07:13:55;98528.06;;;15.37;70.73
75895;BME280;64573;50.328;15.014;2023-05-16T07:16:20;98517.16;;;15.26;69.91
75895;BME280;64573;50.328;15.014;2023-05-16T07:18:46;98520.56;;;15.39;70.56
75895;BME280;64573;50.328;15.014;2023-05-16T07:21:11;98518.91;;;15.38;69.15
75895;BME280;64573;50.328;15.014;2023-05-16T07:23:36;98518.16;;;15.31;69.28
75895;BME280;64573;50.328;15.014;2023-05-16T07:26:02;98524.78;;;15.54;68.60
75895;BME280;64573;50.328;15.014;2023-05-16T07:28:27;98519.81;;;15.32;70.07
75895;BME280;64573;50.328;15.014;2023-05-16T07:30:53;98518.72;;;14.90;70.10
75895;BME280;64573;50.328;15.014;2023-05-16T07:33:18;98517.41;;;14.99;70.10
75895;BME280;64573;50.328;15.014;2023-05-16T07:35:44;98512.00;;;15.42;69.17
75895;BME280;64573;50.328;15.014;2023-05-16T07:38:09;98512.06;;;16.27;66.58
75895;BME280;64573;50.328;15.014;2023-05-16T07:40:35;98516.97;;;16.49;67.44
75895;BME280;64573;50.328;15.014;2023-05-16T07:43:01;98522.19;;;16.32;67.67
75895;BME280;64573;50.328;15.014;2023-05-16T07:45:27;98528.56;;;16.68;64.75
75895;BME280;64573;50.328;15.014;2023-05-16T07:47:52;98532.53;;;17.30;61.25
75895;BME280;64573;50.328;15.014;2023-05-16T07:50:17;98535.63;;;17.34;62.15
75895;BME280;64573;50.328;15.014;2023-05-16T07:52:43;98542.22;;;17.38;61.57
75895;BME280;64573;50.328;15.014;2023-05-16T07:55:08;98544.53;;;16.88;63.32
75895;BME280;64573;50.328;15.014;2023-05-16T07:57:34;98541.50;;;17.66;62.45
75895;BME280;64573;50.328;15.014;2023-05-16T07:59:59;98534.88;;;17.97;60.05
75895;BME280;64573;50.328;15.014;2023-05-16T08:02:25;98541.75;;;17.41;61.51
75895;BME280;64573;50.328;15.014;2023-05-16T08:04:54;98542.22;;;17.38;64.00
75895;BME280;64573;50.328;15.014;2023-05-16T08:07:21;98540.91;;;17.52;60.71
75895;BME280;64573;50.328;15.014;2023-05-16T08:09:46;98537.59;;;17.15;64.26
75895;BME280;64573;50.328;15.014;2023-05-16T08:12:11;98535.72;;;17.51;65.11
75895;BME280;64573;50.328;15.014;2023-05-16T08:14:37;98531.25;;;17.80;64.07
75895;BME280;64573;50.328;15.014;2023-05-16T08:17:03;98547.06;;;17.36;65.07
75895;BME280;64573;50.328;15.014;2023-05-16T08:19:28;98558.59;;;17.20;65.26
75895;BME280;64573;50.328;15.014;2023-05-16T08:21:54;98566.31;;;16.81;67.76
75895;BME280;64573;50.328;15.014;2023-05-16T08:24:20;98569.81;;;16.03;68.64
75895;BME280;64573;50.328;15.014;2023-05-16T08:26:45;98563.50;;;16.88;67.41
75895;BME280;64573;50.328;15.014;2023-05-16T08:29:10;98567.22;;;17.40;66.17
75895;BME280;64573;50.328;15.014;2023-05-16T08:31:36;98563.91;;;17.85;65.36
75895;BME280;64573;50.328;15.014;2023-05-16T08:34:01;98562.03;;;17.85;62.89
75895;BME280;64573;50.328;15.014;2023-05-16T08:36:27;98559.69;;;17.54;64.08
75895;BME280;64573;50.328;15.014;2023-05-16T08:38:53;98561.19;;;17.50;63.10
75895;BME280;64573;50.328;15.014;2023-05-16T08:41:18;98557.31;;;17.57;62.78
75895;BME280;64573;50.328;15.014;2023-05-16T08:43:44;98561.00;;;18.27;62.35
75895;BME280;64573;50.328;15.014;2023-05-16T08:46:09;98572.50;;;17.58;60.92
75895;BME280;64573;50.328;15.014;2023-05-16T08:48:35;98578.16;;;17.10;62.98
75895;BME280;64573;50.328;15.014;2023-05-16T08:51:05;98569.44;;;17.20;62.76
75895;BME280;64573;50.328;15.014;2023-05-16T08:53:39;98579.31;;;18.19;58.55
75895;BME280;64573;50.328;15.014;2023-05-16T08:56:07;98579.03;;;18.61;59.52
75895;BME280;64573;50.328;15.014;2023-05-16T08:58:33;98587.28;;;19.12;56.59
75895;BME280;64573;50.328;15.014;2023-05-16T09:00:58;98584.94;;;19.15;55.72
75895;BME280;64573;50.328;15.014;2023-05-16T09:03:24;98594.31;;;19.08;55.99
75895;BME280;64573;50.328;15.014;2023-05-16T09:05:49;98595.72;;;18.82;59.19
75895;BME280;64573;50.328;15.014;2023-05-16T09:08:15;98604.13;;;18.00;59.21
75895;BME280;64573;50.328;15.014;2023-05-16T09:10:40;98601.41;;;17.88;58.92
75895;BME280;64573;50.328;15.014;2023-05-16T09:13:06;98609.28;;;17.66;61.76
75895;BME280;64573;50.328;15.014;2023-05-16T09:15:32;98609.25;;;18.25;60.79
75895;BME280;64573;50.328;15.014;2023-05-16T09:18:00;98599.50;;;18.12;60.71
75895;BME280;64573;50.328;15.014;2023-05-16T09:20:25;98600.50;;;17.82;60.07
75895;BME280;64573;50.328;15.014;2023-05-16T09:22:58;98590.63;;;18.16;59.83
75895;BME280;64573;50.328;15.014;2023-05-16T09:25:27;98601.91;;;18.77;58.54
75895;BME280;64573;50.328;15.014;2023-05-16T09:27:56;98592.50;;;18.68;58.10
75895;BME280;64573;50.328;15.014;2023-05-16T09:30:26;98590.09;;;19.34;59.00
75895;BME280;64573;50.328;15.014;2023-05-16T09:32:52;98601.69;;;18.95;58.09
75895;BME280;64573;50.328;15.014;2023-05-16T09:35:19;98598.34;;;18.48;57.29
75895;BME280;64573;50.328;15.014;2023-05-16T09:37:49;98607.03;;;18.22;59.64
75895;BME280;64573;50.328;15.014;2023-05-16T09:40:19;98600.91;;;18.03;61.13
75895;BME280;64573;50.328;15.014;2023-05-16T09:42:45;98606.47;;;17.61;63.14
75895;BME280;64573;50.328;15.014;2023-05-16T09:45:12;98609.66;;;17.70;62.75
75895;BME280;64573;50.328;15.014;2023-05-16T09:47:38;98602.31;;;17.35;62.10
75895;BME280;64573;50.328;15.014;2023-05-16T09:50:12;98606.94;;;17.70;64.47
75895;BME280;64573;50.328;15.014;2023-05-16T09:52:37;98599.66;;;17.82;62.72
75895;BME280;64573;50.328;15.014;2023-05-16T09:55:06;98595.66;;;18.36;61.43
75895;BME280;64573;50.328;15.014;2023-05-16T09:59:58;98599.81;;;18.67;60.95
75895;BME280;64573;50.328;15.014;2023-05-16T10:02:25;98600.31;;;18.53;61.39
75895;BME280;64573;50.328;15.014;2023-05-16T10:04:51;98593.56;;;18.67;61.17
75895;BME280;64573;50.328;15.014;2023-05-16T10:07:16;98609.22;;;17.84;63.83
75895;BME280;64573;50.328;15.014;2023-05-16T10:09:42;98613.25;;;16.75;65.18
75895;BME280;64573;50.328;15.014;2023-05-16T10:12:09;98588.97;;;17.10;67.62
75895;BME280;64573;50.328;15.014;2023-05-16T10:14:37;98603.63;;;17.44;64.40
75895;BME280;64573;50.328;15.014;2023-05-16T10:17:05;98593.38;;;17.34;65.72
75895;BME280;64573;50.328;15.014;2023-05-16T10:19:31;98610.34;;;16.40;67.37
75895;BME280;64573;50.328;15.014;2023-05-16T10:22:03;98596.75;;;16.46;68.36
75895;BME280;64573;50.328;15.014;2023-05-16T10:24:43;98584.72;;;16.42;67.29
75895;BME280;64573;50.328;15.014;2023-05-16T10:27:11;98591.19;;;16.41;66.88
75895;BME280;64573;50.328;15.014;2023-05-16T10:29:37;98596.91;;;16.63;67.37
75895;BME280;64573;50.328;15.014;2023-05-16T10:32:04;98601.78;;;16.43;67.29
75895;BME280;64573;50.328;15.014;2023-05-16T10:34:31;98600.22;;;16.65;66.17
75895;BME280;64573;50.328;15.014;2023-05-16T10:36:57;98599.84;;;16.80;64.68
75895;BME280;64573;50.328;15.014;2023-05-16T10:39:23;98596.09;;;16.33;66.74
75895;BME280;64573;50.328;15.014;2023-05-16T10:41:49;98597.88;;;16.39;64.69
75895;BME280;64573;50.328;15.014;2023-05-16T10:44:16;98581.25;;;16.53;63.70
75895;BME280;64573;50.328;15.014;2023-05-16T10:46:41;98593.53;;;16.38;63.55
75895;BME280;64573;50.328;15.014;2023-05-16T10:49:21;98576.16;;;16.27;65.39
75895;BME280;64573;50.328;15.014;2023-05-16T10:52:01;98579.44;;;16.47;65.50
75895;BME280;64573;50.328;15.014;2023-05-16T10:57:04;98563.19;;;16.17;67.17
75895;BME280;64573;50.328;15.014;2023-05-16T10:59:39;98563.09;;;16.24;66.42
75895;BME280;64573;50.328;15.014;2023-05-16T11:02:29;98542.38;;;15.63;66.32
75895;BME280;64573;50.328;15.014;2023-05-16T11:04:58;98534.19;;;15.69;68.35
75895;BME280;64573;50.328;15.014;2023-05-16T11:07:25;98534.75;;;15.53;68.66
75895;BME280;64573;50.328;15.014;2023-05-16T11:10:20;98543.22;;;15.38;67.99
75895;BME280;64573;50.328;15.014;2023-05-16T11:12:50;98538.84;;;15.62;67.15
75895;BME280;64573;50.328;15.014;2023-05-16T11:15:27;98545.47;;;15.66;67.71
75895;BME280;64573;50.328;15.014;2023-05-16T11:18:13;98561.94;;;15.65;68.43
75895;BME280;64573;50.328;15.014;2023-05-16T11:20:39;98546.06;;;15.68;67.45
75895;BME280;64573;50.328;15.014;2023-05-16T11:25:54;98547.38;;;15.59;69.55
75895;BME280;64573;50.328;15.014;2023-05-16T11:28:20;98561.41;;;15.50;68.94
75895;BME280;64573;50.328;15.014;2023-05-16T11:30:54;98551.78;;;14.85;69.09
75895;BME280;64573;50.328;15.014;2023-05-16T11:33:22;98545.28;;;14.93;70.23
75895;BME280;64573;50.328;15.014;2023-05-16T11:36:07;98548.50;;;15.08;69.46
75895;BME280;64573;50.328;15.014;2023-05-16T11:38:33;98560.41;;;15.01;70.17
75895;BME280;64573;50.328;15.014;2023-05-16T11:41:04;98591.06;;;15.06;70.36
75895;BME280;64573;50.328;15.014;2023-05-16T11:43:39;98576.28;;;14.84;69.44
75895;BME280;64573;50.328;15.014;2023-05-16T11:46:05;98574.63;;;14.83;70.27
75895;BME280;64573;50.328;15.014;2023-05-16T11:48:32;98573.63;;;14.77;70.12
75895;BME280;64573;50.328;15.014;2023-05-16T11:53:26;98582.53;;;14.40;71.50
75895;BME280;64573;50.328;15.014;2023-05-16T11:55:52;98575.53;;;14.70;72.46
75895;BME280;64573;50.328;15.014;2023-05-16T11:58:18;98589.41;;;14.42;72.66
75895;BME280;64573;50.328;15.014;2023-05-16T12:00:48;98599.97;;;14.44;71.22
75895;BME280;64573;50.328;15.014;2023-05-16T12:03:14;98612.31;;;14.71;72.28
75895;BME280;64573;50.328;15.014;2023-05-16T12:05:48;98609.13;;;14.49;70.23
75895;BME280;64573;50.328;15.014;2023-05-16T12:08:15;98612.47;;;14.31;70.15
75895;BME280;64573;50.328;15.014;2023-05-16T12:10:41;98612.94;;;14.67;71.10
75895;BME280;64573;50.328;15.014;2023-05-16T12:13:06;98631.88;;;14.60;71.00
75895;BME280;64573;50.328;15.014;2023-05-16T12:15:32;98629.44;;;14.52;70.26
75895;BME280;64573;50.328;15.014;2023-05-16T12:17:58;98642.91;;;14.52;71.49
75895;BME280;64573;50.328;15.014;2023-05-16T12:20:23;98630.00;;;14.60;70.86
75895;BME280;64573;50.328;15.014;2023-05-16T12:22:51;98637.84;;;14.17;72.51
75895;BME280;64573;50.328;15.014;2023-05-16T12:27:46;98668.75;;;14.15;72.17
75895;BME280;64573;50.328;15.014;2023-05-16T12:30:11;98667.88;;;14.34;72.29
75895;BME280;64573;50.328;15.014;2023-05-16T12:32:37;98659.19;;;14.19;71.29
75895;BME280;64573;50.328;15.014;2023-05-16T12:35:02;98680.41;;;13.95;73.11
75895;BME280;64573;50.328;15.014;2023-05-16T12:37:28;98671.25;;;14.03;73.18
75895;BME280;64573;50.328;15.014;2023-05-16T12:39:59;98646.34;;;14.21;73.82
75895;BME280;64573;50.328;15.014;2023-05-16T12:42:25;98649.34;;;13.73;73.70
75895;BME280;64573;50.328;15.014;2023-05-16T12:44:54;98644.19;;;13.32;73.30
75895;BME280;64573;50.328;15.014;2023-05-16T12:47:20;98650.41;;;13.59;76.30
75895;BME280;64573;50.328;15.014;2023-05-16T12:49:46;98653.72;;;13.21;74.85
75895;BME280;64573;50.328;15.014;2023-05-16T12:54:41;98676.00;;;13.02;76.00
75895;BME280;64573;50.328;15.014;2023-05-16T12:57:06;98649.50;;;12.85;77.18
75895;BME280;64573;50.328;15.014;2023-05-16T12:59:34;98645.09;;;12.71;76.71
75895;BME280;64573;50.328;15.014;2023-05-16T13:01:59;98626.44;;;12.56;77.47
75895;BME280;64573;50.328;15.014;2023-05-16T13:04:24;98637.34;;;12.41;77.72
75895;BME280;64573;50.328;15.014;2023-05-16T13:06:50;98628.97;;;12.71;77.63
75895;BME280;64573;50.328;15.014;2023-05-16T13:09:15;98625.34;;;12.44;76.96
75895;BME280;64573;50.328;15.014;2023-05-16T13:11:42;98622.84;;;12.36;77.17
75895;BME280;64573;50.328;15.014;2023-05-16T13:14:07;98637.16;;;12.43;76.35
75895;BME280;64573;50.328;15.014;2023-05-16T13:16:32;98639.59;;;12.31;77.32
75895;BME280;64573;50.328;15.014;2023-05-16T13:18:58;98647.28;;;12.41;78.00
75895;BME280;64573;50.328;15.014;2023-05-16T13:21:23;98640.63;;;12.37;77.60
75895;BME280;64573;50.328;15.014;2023-05-16T13:23:49;98632.19;;;12.40;76.70
75895;BME280;64573;50.328;15.014;2023-05-16T13:26:14;98631.78;;;12.50;77.06
75895;BME280;64573;50.328;15.014;2023-05-16T13:28:40;98640.53;;;12.65;77.36
75895;BME280;64573;50.328;15.014;2023-05-16T13:31:05;98637.59;;;12.60;77.03
75895;BME280;64573;50.328;15.014;2023-05-16T13:33:31;98644.66;;;12.54;76.88
75895;BME280;64573;50.328;15.014;2023-05-16T13:35:57;98656.19;;;12.41;76.05
75895;BME280;64573;50.328;15.014;2023-05-16T13:38:22;98642.97;;;12.47;76.27
75895;BME280;64573;50.328;15.014;2023-05-16T13:40:47;98646.88;;;12.44;77.17
75895;BME280;64573;50.328;15.014;2023-05-16T13:43:13;98658.66;;;12.43;77.54
75895;BME280;64573;50.328;15.014;2023-05-16T13:45:39;98658.69;;;12.08;77.79
75895;BME280;64573;50.328;15.014;2023-05-16T13:48:05;98661.09;;;12.25;78.47
75895;BME280;64573;50.328;15.014;2023-05-16T13:50:31;98663.50;;;12.13;78.75
75895;BME280;64573;50.328;15.014;2023-05-16T13:52:57;98662.03;;;12.10;79.04
75895;BME280;64573;50.328;15.014;2023-05-16T13:55:22;98662.53;;;11.93;78.10
75895;BME280;64573;50.328;15.014;2023-05-16T13:57:47;98651.41;;;11.68;79.12
75895;BME280;64573;50.328;15.014;2023-05-16T14:00:14;98650.19;;;11.70;79.83
75895;BME280;64573;50.328;15.014;2023-05-16T14:02:40;98656.78;;;11.68;80.08
75895;BME280;64573;50.328;15.014;2023-05-16T14:05:06;98663.38;;;11.93;80.08
75895;BME280;64573;50.328;15.014;2023-05-16T14:07:32;98649.72;;;11.95;79.69
75895;BME280;64573;50.328;15.014;2023-05-16T14:09:57;98662.06;;;12.17;79.14
75895;BME280;64573;50.328;15.014;2023-05-16T14:12:22;98650.34;;;11.90;79.66
75895;BME280;64573;50.328;15.014;2023-05-16T14:14:48;98651.47;;;12.02;79.05
75895;BME280;64573;50.328;15.014;2023-05-16T14:17:13;98664.81;;;11.89;80.13
75895;BME280;64573;50.328;15.014;2023-05-16T14:19:38;98661.25;;;11.82;79.86
75895;BME280;64573;50.328;15.014;2023-05-16T14:22:04;98667.31;;;11.69;79.53
75895;BME280;64573;50.328;15.014;2023-05-16T14:24:29;98658.34;;;11.83;80.17
75895;BME280;64573;50.328;15.014;2023-05-16T14:26:55;98649.25;;;11.56;81.10
75895;BME280;64573;50.328;15.014;2023-05-16T14:29:20;98638.56;;;11.63;81.19
75895;BME280;64573;50.328;15.014;2023-05-16T14:31:46;98642.22;;;11.55;80.92
75895;BME280;64573;50.328;15.014;2023-05-16T14:34:11;98631.09;;;11.30;81.46
75895;BME280;64573;50.328;15.014;2023-05-16T14:36:36;98637.66;;;11.28;82.07
75895;BME280;64573;50.328;15.014;2023-05-16T14:39:02;98649.97;;;11.44;81.82
75895;BME280;64573;50.328;15.014;2023-05-16T14:41:28;98637.03;;;11.26;81.79
75895;BME280;64573;50.328;15.014;2023-05-16T14:43:54;98642.00;;;11.29;81.16
75895;BME280;64573;50.328;15.014;2023-05-16T14:46:19;98662.16;;;11.18;81.56
75895;BME280;64573;50.328;15.014;2023-05-16T14:48:44;98641.66;;;11.11;81.40
75895;BME280;64573;50.328;15.014;2023-05-16T14:51:10;98639.22;;;11.16;81.59
75895;BME280;64573;50.328;15.014;2023-05-16T14:53:36;98642.47;;;11.32;81.74
75895;BME280;64573;50.328;15.014;2023-05-16T14:56:02;98661.19;;;11.26;81.43